CDT,Max TemperatureF,Mean TemperatureF,Min TemperatureF,Max Dew PointF,MeanDew PointF,Min DewpointF,Max Humidity, Mean Humidity, Min Humidity, Max Sea Level PressureIn, Mean Sea Level PressureIn, Min Sea Level PressureIn, Max VisibilityMiles, Mean VisibilityMiles, Min VisibilityMiles, Max Wind SpeedMPH, Mean Wind SpeedMPH, Max Gust SpeedMPH,PrecipitationIn, CloudCover, Events, WindDirDegrees
2013-7-1,82,68,55,58,54,51,87,60,36,30.15,30.10,30.07,10,9,5,10,6,20,0.00,1,,354
2013-7-2,84,70,55,61,57,53,90,63,37,30.14,30.09,30.04,10,10,10,8,2,,0.00,0,,339
2013-7-3,86,70,57,63,58,55,93,65,36,30.06,30.01,29.95,10,10,7,10,3,,0.00,1,,227
2013-7-4,88,72,57,62,57,54,93,61,32,30.01,29.96,29.90,10,10,10,13,6,20,0.00,0,,163
2013-7-5,91,76,62,66,61,57,86,61,36,29.94,29.90,29.84,10,10,9,16,8,23,0.00,0,,156
2013-7-6,89,76,64,66,64,61,87,66,48,29.90,29.86,29.82,10,10,9,16,9,25,0.01,1,Rain,161
2013-7-7,97,85,73,70,66,63,73,55,35,29.89,29.86,29.83,10,10,9,17,11,26,0.00,2,,186
2013-7-8,95,88,81,75,69,66,69,58,47,29.96,29.92,29.89,10,10,10,15,9,21,0.00,1,,194
2013-7-9,97,86,75,80,74,69,97,72,47,29.99,29.89,29.82,10,9,2,10,7,16,0.38,2,Rain-Thunderstorm,209
2013-7-10,89,81,71,77,69,63,88,67,46,30.05,29.98,29.88,10,10,9,14,7,31,0.01,1,Rain-Thunderstorm,17
2013-7-11,88,76,64,66,62,59,87,65,43,30.09,30.02,29.95,10,10,10,12,6,,0.00,0,,121
2013-7-12,91,77,64,71,65,60,87,65,50,30.01,29.97,29.91,10,10,9,18,9,23,0.00,0,,136
2013-7-13,87,78,70,73,66,60,74,68,60,29.99,29.96,29.91,10,10,10,12,7,,0.00,1,,130
2013-7-14,87,78,68,65,63,61,84,64,41,30.12,30.03,29.95,10,10,10,16,10,24,0.00,1,Rain,126
2013-7-15,89,77,66,69,66,61,87,70,49,30.18,30.13,30.09,10,10,6,10,4,,0.00,1,,123
2013-7-16,91,78,68,74,69,65,93,71,52,30.24,30.20,30.16,10,10,6,8,3,,0.00,0,,118
2013-7-17,93,80,70,75,71,68,93,70,47,30.29,30.22,30.15,10,10,8,9,2,,0.00,0,Thunderstorm,137
2013-7-18,96,84,73,71,68,66,91,62,40,30.16,30.06,29.94,10,10,10,14,7,24,0.00,0,,204
2013-7-19,97,83,73,76,70,66,82,66,47,29.95,29.90,29.83,10,10,10,13,6,,0.00,0,,228
2013-7-20,82,77,72,74,70,65,93,80,65,29.93,29.89,29.85,10,10,10,10,4,,0.03,3,Rain,99
2013-7-21,89,78,69,72,70,67,97,76,55,29.89,29.83,29.77,10,10,6,9,4,,0.01,2,,191
2013-7-22,95,82,69,75,72,68,96,74,50,29.81,29.77,29.72,10,10,6,12,5,,0.00,0,,193
2013-7-23,82,75,66,71,66,62,93,75,58,29.97,29.88,29.78,10,10,10,18,7,25,0.00,1,,45
2013-7-24,84,70,57,65,62,57,97,72,49,30.05,30.02,29.97,10,10,9,12,2,,0.00,0,,9
2013-7-25,80,72,64,70,65,62,96,82,62,30.06,30.03,29.99,10,10,10,13,3,,0.02,5,Rain,167
2013-7-26,82,72,60,70,65,55,100,83,42,30.09,30.02,29.96,10,6,0,13,4,21,0.20,3,Fog-Rain,336
2013-7-27,75,64,54,56,51,46,97,65,37,30.12,30.06,30.00,10,10,10,10,4,18,0.00,1,,340
2013-7-28,79,64,50,59,52,48,96,66,40,30.07,30.04,30.01,10,10,10,7,2,,0.00,1,,114
2013-7-29,68,65,62,67,63,60,100,97,84,30.07,30.03,29.98,10,6,1,13,6,20,1.64,7,Rain,123
2013-7-30,79,72,66,70,68,66,100,90,74,30.07,30.02,29.99,10,6,0,8,4,,0.01,8,Fog-Rain,9
2013-7-31,84,74,64,68,66,63,100,87,58,30.14,30.09,30.04,10,5,0,6,2,,0.01,2,Fog,334